TimeCDT,TemperatureF,Dew PointF,Humidity,Sea Level PressureIn,VisibilityMPH,Wind Direction,Wind SpeedMPH,Gust SpeedMPH,PrecipitationIn,Events,Conditions,WindDirDegrees,DateUTC
12:53 AM,72.0,68.0,87,29.91,10.0,South,4.6,-,N/A,,Clear,170,2013-09-20 05:53:00
1:53 AM,73.0,66.0,79,29.94,10.0,West,11.5,20.7,0.00,Rain,Light Rain,280,2013-09-20 06:53:00
2:39 AM,69.8,66.2,88,29.99,5.0,NW,9.2,-,0.04,Rain,Rain,310,2013-09-20 07:39:00
2:47 AM,68.0,66.2,94,29.99,2.5,NW,17.3,25.3,0.10,Rain-Thunderstorm,Heavy Thunderstorms and Rain,320,2013-09-20 07:47:00
2:53 AM,66.9,66.0,97,29.96,2.0,WNW,10.4,25.3,0.14,Rain-Thunderstorm,Heavy Thunderstorms and Rain,290,2013-09-20 07:53:00
3:02 AM,66.2,64.4,94,29.99,2.5,NNW,12.7,20.7,0.08,Rain,Heavy Rain,330,2013-09-20 08:02:00
3:10 AM,66.2,64.4,94,29.98,2.5,NW,10.4,19.6,0.16,Rain,Heavy Rain,310,2013-09-20 08:10:00
3:18 AM,66.2,64.4,94,29.99,1.8,WNW,11.5,-,0.25,Rain,Heavy Rain,300,2013-09-20 08:18:00
3:22 AM,66.2,64.4,94,29.99,3.0,NW,10.4,-,0.26,Rain,Rain,310,2013-09-20 08:22:00
3:53 AM,66.0,64.9,96,29.96,7.0,West,3.5,32.2,0.29,Rain,Rain,280,2013-09-20 08:53:00
4:53 AM,66.0,64.9,96,29.94,6.0,NW,4.6,-,0.07,Rain,Rain,310,2013-09-20 09:53:00
5:53 AM,66.0,64.9,96,29.95,6.0,West,4.6,-,0.14,Rain,Rain,270,2013-09-20 10:53:00
6:53 AM,66.0,64.9,96,29.95,10.0,Calm,Calm,-,0.04,Rain,Light Rain,0,2013-09-20 11:53:00
7:53 AM,66.0,64.9,96,29.95,10.0,Calm,Calm,-,0.02,Rain,Light Rain,0,2013-09-20 12:53:00
8:53 AM,66.9,66.0,97,29.95,10.0,Calm,Calm,-,0.01,Rain,Light Rain,0,2013-09-20 13:53:00
9:53 AM,68.0,66.0,93,29.94,10.0,Calm,Calm,-,0.00,,Scattered Clouds,0,2013-09-20 14:53:00
10:27 AM,68.0,66.2,94,29.99,8.0,NNW,4.6,-,0.00,Rain,Light Rain,330,2013-09-20 15:27:00
10:35 AM,68.0,66.2,94,29.99,9.0,NNW,6.9,-,0.01,Rain,Light Rain,330,2013-09-20 15:35:00
10:53 AM,68.0,66.9,96,29.96,10.0,NW,4.6,-,0.01,Rain,Light Rain,320,2013-09-20 15:53:00
11:53 AM,69.1,66.9,93,29.96,10.0,North,5.8,-,0.00,,Overcast,350,2013-09-20 16:53:00
12:02 PM,69.8,66.2,88,29.99,10.0,NNW,4.6,-,N/A,,Overcast,330,2013-09-20 17:02:00
12:12 PM,69.8,66.2,88,29.99,10.0,Calm,Calm,-,N/A,,Overcast,0,2013-09-20 17:12:00
12:21 PM,71.6,66.2,83,29.99,10.0,NNW,3.5,-,0.00,Rain,Light Rain,330,2013-09-20 17:21:00
12:48 PM,69.8,66.2,88,29.98,10.0,NNW,6.9,-,0.01,Rain,Light Rain,340,2013-09-20 17:48:00
12:53 PM,70.0,66.9,90,29.95,10.0,North,3.5,-,0.01,Rain,Light Rain,350,2013-09-20 17:53:00
1:00 PM,69.8,66.2,88,29.98,10.0,North,6.9,-,0.00,Rain,Light Rain,350,2013-09-20 18:00:00
1:22 PM,69.8,66.2,88,29.98,10.0,NNW,4.6,-,0.00,Rain,Light Rain,340,2013-09-20 18:22:00
1:53 PM,69.1,66.9,93,29.94,6.0,NNW,4.6,-,0.01,Rain,Light Rain,340,2013-09-20 18:53:00
2:06 PM,69.8,66.2,88,29.97,7.0,North,8.1,-,0.00,Rain,Light Rain,350,2013-09-20 19:06:00
2:23 PM,69.8,66.2,88,29.96,10.0,NNW,4.6,-,0.00,,Overcast,330,2013-09-20 19:23:00
2:48 PM,69.8,66.2,88,29.95,10.0,NNW,5.8,-,0.00,,Overcast,340,2013-09-20 19:48:00
2:53 PM,70.0,66.0,87,29.92,10.0,NNW,5.8,-,0.00,,Overcast,330,2013-09-20 19:53:00
3:06 PM,68.0,64.4,88,29.95,8.0,NNW,11.5,18.4,N/A,,Overcast,330,2013-09-20 20:06:00
3:21 PM,68.0,64.4,88,29.94,7.0,North,8.1,-,N/A,,Overcast,350,2013-09-20 20:21:00
3:53 PM,68.0,63.0,84,29.92,10.0,NNW,4.6,-,N/A,,Overcast,330,2013-09-20 20:53:00
4:06 PM,68.0,64.4,88,29.95,10.0,NNW,5.8,-,N/A,,Overcast,330,2013-09-20 21:06:00
4:53 PM,66.9,61.0,81,29.92,10.0,NNW,4.6,-,N/A,,Overcast,340,2013-09-20 21:53:00
5:53 PM,66.0,55.9,70,29.91,10.0,NNW,6.9,-,N/A,,Overcast,340,2013-09-20 22:53:00
6:53 PM,64.0,57.0,78,29.92,10.0,NNW,4.6,-,N/A,,Overcast,330,2013-09-20 23:53:00
7:53 PM,63.0,55.9,78,29.94,10.0,NW,5.8,-,N/A,,Partly Cloudy,310,2013-09-21 00:53:00
8:53 PM,61.0,55.9,83,29.94,10.0,WNW,3.5,-,N/A,,Clear,290,2013-09-21 01:53:00
9:53 PM,60.1,55.9,86,29.94,10.0,WNW,3.5,-,N/A,,Clear,300,2013-09-21 02:53:00
10:53 PM,60.1,55.9,86,29.95,10.0,WNW,4.6,-,N/A,,Clear,300,2013-09-21 03:53:00
11:53 PM,57.9,55.0,90,29.95,10.0,NW,5.8,-,N/A,,Clear,320,2013-09-21 04:53:00